createdAt,value
2019-05-01T00:01:45.064Z,100195.03
2019-05-01T00:04:21.143Z,100204.56
2019-05-01T00:06:54.248Z,100202.73
2019-05-01T00:09:25.753Z,100196.17
2019-05-01T00:11:57.246Z,100188.59
2019-05-01T00:14:30.252Z,100193.23
2019-05-01T00:17:02.172Z,100186.20
2019-05-01T00:19:33.883Z,100177.46
2019-05-01T00:22:05.260Z,100178.38
2019-05-01T00:24:36.740Z,100170.84
2019-05-01T00:27:08.190Z,100170.76
2019-05-01T00:29:39.707Z,100170.95
2019-05-01T00:32:11.239Z,100169.54
2019-05-01T00:34:42.714Z,100166.86
2019-05-01T00:37:14.165Z,100165.44
2019-05-01T00:39:45.717Z,100164.78
2019-05-01T00:42:17.136Z,100157.05
2019-05-01T00:44:48.640Z,100152.50
2019-05-01T00:47:20.087Z,100146.23
2019-05-01T00:49:51.639Z,100146.44
2019-05-01T00:52:23.044Z,100140.20
2019-05-01T00:55:12.638Z,100133.08
2019-05-01T00:57:45.649Z,100125.94
2019-05-01T01:00:24.768Z,100121.83
2019-05-01T01:02:56.278Z,100123.51
2019-05-01T01:05:27.788Z,100133.02
2019-05-01T01:07:59.324Z,100126.19
2019-05-01T01:10:30.834Z,100127.41
2019-05-01T01:13:03.287Z,100118.55
2019-05-01T01:15:34.731Z,100118.23
2019-05-01T01:18:06.254Z,100120.92
2019-05-01T01:20:37.666Z,100115.11
2019-05-01T01:23:09.054Z,100110.50
2019-05-01T01:25:40.550Z,100108.22
2019-05-01T01:28:12.049Z,100104.17
2019-05-01T01:30:55.676Z,100101.89
2019-05-01T01:33:17.131Z,100101.75
2019-05-01T01:35:48.552Z,100096.19
2019-05-01T01:38:19.980Z,100087.82
2019-05-01T01:40:51.743Z,100091.72
2019-05-01T01:43:40.014Z,100080.58
2019-05-01T01:46:28.298Z,100087.82
2019-05-01T01:48:59.904Z,100080.38
2019-05-01T01:51:31.496Z,100076.69
2019-05-01T01:54:03.233Z,100073.59
2019-05-01T01:56:34.879Z,100075.00
2019-05-01T01:59:06.465Z,100075.36
2019-05-01T02:01:49.333Z,100071.56
2019-05-01T02:04:40.007Z,100072.11
2019-05-01T02:07:11.511Z,100069.01
2019-05-01T02:09:42.917Z,100066.78
2019-05-01T02:12:15.098Z,100063.39
2019-05-01T02:14:46.492Z,100057.20
2019-05-01T02:17:18.013Z,100058.64
2019-05-01T02:19:49.585Z,100055.33
2019-05-01T02:22:21.001Z,100059.53
2019-05-01T02:24:52.382Z,100058.68
2019-05-01T02:27:28.483Z,100054.92
2019-05-01T02:30:02.466Z,100055.16
2019-05-01T02:32:35.311Z,100056.84
2019-05-01T02:35:07.778Z,100053.25
2019-05-01T02:37:39.882Z,100050.85
2019-05-01T02:40:43.018Z,100053.38
2019-05-01T02:46:03.254Z,100044.11
2019-05-01T02:48:37.851Z,100042.02
2019-05-01T02:51:10.513Z,100034.94
2019-05-01T02:53:44.958Z,100033.06
2019-05-01T02:56:19.462Z,100037.27
2019-05-01T02:58:53.882Z,100033.81
2019-05-01T03:01:25.992Z,100030.53
2019-05-01T03:03:58.273Z,100038.53
2019-05-01T03:06:32.350Z,100033.41
2019-05-01T03:09:07.444Z,100037.51
2019-05-01T03:11:39.723Z,100032.68
2019-05-01T03:14:19.752Z,100029.09
2019-05-01T03:16:54.358Z,100031.34
2019-05-01T03:19:31.694Z,100034.08
2019-05-01T03:22:20.490Z,100038.19
2019-05-01T03:24:52.536Z,100038.91
2019-05-01T03:27:23.970Z,100034.29
2019-05-01T03:29:55.831Z,100025.97
2019-05-01T03:32:27.324Z,100029.98
2019-05-01T03:34:58.727Z,100030.56
2019-05-01T03:37:30.600Z,100025.42
2019-05-01T03:40:02.078Z,100025.66
2019-05-01T03:42:34.835Z,100026.20
2019-05-01T03:45:07.306Z,100028.73
2019-05-01T03:47:38.836Z,100027.78
2019-05-01T03:50:10.412Z,100034.70
2019-05-01T03:52:42.364Z,100035.79
2019-05-01T03:55:14.314Z,100038.83
2019-05-01T03:57:45.893Z,100038.97
2019-05-01T04:00:22.174Z,100043.48
2019-05-01T04:03:11.929Z,100045.97
2019-05-01T04:05:44.209Z,100043.95
2019-05-01T04:08:16.642Z,100041.56
2019-05-01T04:10:48.920Z,100043.15
2019-05-01T04:13:20.411Z,100031.81
2019-05-01T04:15:53.581Z,100019.81
2019-05-01T04:18:26.838Z,100010.09
2019-05-01T04:20:59.197Z,100005.56
2019-05-01T04:23:31.090Z,100011.45
2019-05-01T04:26:02.959Z,100020.60
2019-05-01T04:28:40.244Z,100023.00
2019-05-01T04:31:13.417Z,100020.00
2019-05-01T04:33:46.926Z,100020.33
2019-05-01T04:36:38.509Z,100021.18
2019-05-01T04:39:09.908Z,100016.42
2019-05-01T04:41:41.480Z,100015.39
2019-05-01T04:44:12.866Z,100015.38
2019-05-01T04:46:44.248Z,100020.56
2019-05-01T04:49:18.074Z,100021.30
2019-05-01T04:51:49.302Z,100021.00
2019-05-01T04:54:21.370Z,100013.22
2019-05-01T04:56:53.142Z,100008.36
2019-05-01T04:59:24.630Z,100005.41
2019-05-01T05:01:58.433Z,99999.29
2019-05-01T05:04:30.717Z,100003.74
2019-05-01T05:07:02.192Z,100010.39
2019-05-01T05:09:39.157Z,100007.87
2019-05-01T05:12:12.662Z,99998.45
2019-05-01T05:14:48.576Z,100000.45
2019-05-01T05:17:21.661Z,99995.89
2019-05-01T05:19:53.395Z,99996.73
2019-05-01T05:22:25.917Z,99985.33
2019-05-01T05:24:57.674Z,99983.84
2019-05-01T05:27:30.285Z,99985.61
2019-05-01T05:30:02.628Z,99980.75
2019-05-01T05:32:35.966Z,99971.64
2019-05-01T05:35:08.951Z,99972.14
2019-05-01T05:37:58.312Z,99973.30
2019-05-01T05:40:32.767Z,99978.13
2019-05-01T05:43:05.696Z,99972.44
2019-05-01T05:45:37.457Z,99969.45
2019-05-01T05:48:09.343Z,99971.02
2019-05-01T05:51:02.740Z,99965.49
2019-05-01T05:53:37.706Z,99957.14
2019-05-01T05:56:11.434Z,99957.33
2019-05-01T05:58:46.166Z,99958.00
2019-05-01T06:01:29.166Z,99950.47
2019-05-01T06:04:20.931Z,99952.87
2019-05-01T06:07:00.997Z,99948.67
2019-05-01T06:09:37.155Z,99944.73
2019-05-01T06:12:16.101Z,99947.23
2019-05-01T06:14:51.400Z,99945.63
2019-05-01T06:17:36.655Z,99941.58
2019-05-01T06:20:15.671Z,99951.27
2019-05-01T06:23:07.413Z,99938.23
2019-05-01T06:25:42.986Z,99935.48
2019-05-01T06:28:15.430Z,99939.45
2019-05-01T06:30:48.793Z,99933.30
2019-05-01T06:33:19.943Z,99941.27
2019-05-01T06:35:51.447Z,99953.20
2019-05-01T06:38:45.369Z,99957.84
2019-05-01T06:41:07.635Z,99959.73
2019-05-01T06:43:44.180Z,99961.17
2019-05-01T06:46:22.192Z,99965.53
2019-05-01T06:48:55.794Z,99971.83
2019-05-01T06:51:35.500Z,99978.85
2019-05-01T06:54:11.366Z,99977.38
2019-05-01T06:56:43.198Z,99974.58
2019-05-01T06:59:16.774Z,99981.27
2019-05-01T07:01:53.263Z,99983.64
2019-05-01T07:04:24.680Z,99983.34
2019-05-01T07:06:56.168Z,99977.91
2019-05-01T07:09:28.450Z,99971.64
2019-05-01T07:12:02.802Z,99973.80
2019-05-01T07:14:34.965Z,99969.73
2019-05-01T07:17:09.005Z,99978.52
2019-05-01T07:19:54.349Z,99978.59
2019-05-01T07:22:28.139Z,99982.75
2019-05-01T07:25:07.044Z,99973.52
2019-05-01T07:27:49.198Z,99968.13
2019-05-01T07:30:41.361Z,99977.46
2019-05-01T07:33:16.700Z,99965.55
2019-05-01T07:35:53.824Z,99962.52
2019-05-01T07:38:27.507Z,99963.22
2019-05-01T07:41:03.493Z,99968.50
2019-05-01T07:43:38.688Z,99969.92
2019-05-01T07:46:13.777Z,99959.78
2019-05-01T07:48:56.388Z,99962.22
2019-05-01T07:51:37.791Z,99955.90
2019-05-01T07:54:11.480Z,99954.05
2019-05-01T07:56:44.972Z,99945.74
2019-05-01T07:59:22.743Z,99939.61
2019-05-01T08:01:59.068Z,99928.20
2019-05-01T08:04:36.313Z,99910.91
2019-05-01T08:07:14.726Z,99912.00
2019-05-01T08:09:50.249Z,99897.44
2019-05-01T08:12:23.895Z,99901.20
2019-05-01T08:14:55.850Z,99905.38
2019-05-01T08:17:29.146Z,99912.68
2019-05-01T08:20:05.058Z,99912.26
2019-05-01T08:22:39.416Z,99901.09
2019-05-01T08:25:15.240Z,99910.37
2019-05-01T08:27:56.208Z,99920.30
2019-05-01T08:30:35.621Z,99916.79
2019-05-01T08:33:09.767Z,99916.01
2019-05-01T08:35:41.775Z,99916.81
2019-05-01T08:38:13.287Z,99907.61
2019-05-01T08:40:44.734Z,99910.66
2019-05-01T08:43:18.121Z,99909.95
2019-05-01T08:45:51.834Z,99898.47
2019-05-01T08:48:35.755Z,99896.88
2019-05-01T08:51:04.460Z,99899.41
2019-05-01T08:53:35.908Z,99907.61
2019-05-01T08:56:09.720Z,99906.69
2019-05-01T08:58:40.616Z,99901.67
2019-05-01T09:01:14.970Z,99903.08
2019-05-01T09:03:45.390Z,99894.39
2019-05-01T09:06:16.783Z,99889.98
2019-05-01T09:08:48.302Z,99890.33
2019-05-01T09:11:19.716Z,99890.17
2019-05-01T09:13:54.710Z,99882.83
2019-05-01T09:16:28.323Z,99883.98
2019-05-01T09:18:57.444Z,99872.69
2019-05-01T09:21:28.851Z,99874.80
2019-05-01T09:24:00.306Z,99864.65
2019-05-01T09:26:36.165Z,99855.79
2019-05-01T09:29:16.124Z,99861.13
2019-05-01T09:31:45.144Z,99853.73
2019-05-01T09:34:19.135Z,99853.56
2019-05-01T09:36:49.768Z,99848.80
2019-05-01T09:39:22.882Z,99845.55
2019-05-01T09:41:54.306Z,99838.09
2019-05-01T09:44:25.732Z,99835.28
2019-05-01T09:46:57.094Z,99836.46
2019-05-01T09:49:28.569Z,99838.23
2019-05-01T09:52:18.919Z,99835.22
2019-05-01T09:54:54.387Z,99831.11
2019-05-01T09:57:25.873Z,99828.70
2019-05-01T09:59:57.336Z,99830.57
2019-05-01T10:02:28.787Z,99830.53
2019-05-01T10:05:02.115Z,99819.70
2019-05-01T10:07:33.327Z,99818.39
2019-05-01T10:10:06.979Z,99817.24
2019-05-01T10:12:41.912Z,99816.29
2019-05-01T10:15:11.505Z,99818.67
2019-05-01T10:17:43.021Z,99809.72
2019-05-01T10:20:14.453Z,99812.56
2019-05-01T10:22:45.812Z,99808.68
2019-05-01T10:25:17.200Z,99804.47
2019-05-01T10:27:52.875Z,99800.58
2019-05-01T10:30:31.701Z,99799.42
2019-05-01T10:33:17.812Z,99801.30
2019-05-01T10:36:07.080Z,99798.38
2019-05-01T10:38:39.943Z,99796.88
2019-05-01T10:41:11.635Z,99793.83
2019-05-01T10:43:43.114Z,99796.42
2019-05-01T10:46:14.652Z,99797.53
2019-05-01T10:48:46.063Z,99779.64
2019-05-01T10:51:17.408Z,99782.75
2019-05-01T10:53:48.826Z,99782.60
2019-05-01T10:56:20.175Z,99775.11
2019-05-01T10:58:51.637Z,99767.00
2019-05-01T11:01:41.108Z,99762.88
2019-05-01T11:04:12.629Z,99768.73
2019-05-01T11:06:44.044Z,99769.05
2019-05-01T11:09:15.382Z,99766.13
2019-05-01T11:11:46.834Z,99766.69
2019-05-01T11:14:18.441Z,99765.84
2019-05-01T11:16:49.951Z,99763.35
2019-05-01T11:19:21.513Z,99748.76
2019-05-01T11:21:53.038Z,99740.59
2019-05-01T11:24:24.823Z,99739.84
2019-05-01T11:26:56.514Z,99735.78
2019-05-01T11:29:28.332Z,99735.80
2019-05-01T11:32:13.743Z,99725.58
2019-05-01T11:34:46.815Z,99729.17
2019-05-01T11:37:25.897Z,99720.56
2019-05-01T11:39:58.978Z,99725.52
2019-05-01T11:42:30.593Z,99716.63
2019-05-01T11:45:02.153Z,99723.34
2019-05-01T11:47:33.677Z,99720.84
2019-05-01T11:50:06.311Z,99718.06
2019-05-01T11:52:37.817Z,99711.63
2019-05-01T11:55:09.363Z,99714.94
2019-05-01T11:57:40.874Z,99719.14
2019-05-01T12:00:15.552Z,99709.69
2019-05-01T12:02:47.107Z,99706.38
2019-05-01T12:05:18.621Z,99706.35
2019-05-01T12:07:50.206Z,99700.50
2019-05-01T12:10:21.735Z,99700.50
2019-05-01T12:12:53.278Z,99698.84
2019-05-01T12:15:24.954Z,99694.67
2019-05-01T12:17:56.475Z,99691.05
2019-05-01T12:20:27.979Z,99680.49
2019-05-01T12:22:59.499Z,99681.60
2019-05-01T12:25:31.077Z,99676.61
2019-05-01T12:28:02.623Z,99675.75
2019-05-01T12:30:34.140Z,99667.11
2019-05-01T12:33:05.648Z,99655.70
2019-05-01T12:35:37.244Z,99660.70
2019-05-01T12:38:08.830Z,99654.62
2019-05-01T12:40:40.369Z,99647.68
2019-05-01T12:43:12.391Z,99641.83
2019-05-01T12:45:45.716Z,99631.81
2019-05-01T12:48:17.249Z,99622.34
2019-05-01T12:50:50.348Z,99625.33
2019-05-01T12:53:23.495Z,99632.08
2019-05-01T12:56:06.752Z,99627.92
2019-05-01T12:58:38.261Z,99622.92
2019-05-01T13:01:09.785Z,99614.85
2019-05-01T13:03:41.318Z,99615.39
2019-05-01T13:06:14.514Z,99603.16
2019-05-01T13:08:46.185Z,99608.72
2019-05-01T13:11:17.698Z,99605.12
2019-05-01T13:13:49.280Z,99600.39
2019-05-01T13:16:20.825Z,99596.77
2019-05-01T13:18:52.368Z,99583.42
2019-05-01T13:21:23.933Z,99575.06
2019-05-01T13:23:55.486Z,99573.41
2019-05-01T13:26:28.624Z,99567.01
2019-05-01T13:29:17.257Z,99570.03
2019-05-01T13:31:56.226Z,99565.83
2019-05-01T13:34:27.816Z,99556.91
2019-05-01T13:37:03.043Z,99563.91
2019-05-01T13:39:32.689Z,99550.55
2019-05-01T13:42:05.104Z,99548.34
2019-05-01T13:44:36.702Z,99543.91
2019-05-01T13:47:08.353Z,99540.31
2019-05-01T13:49:39.914Z,99539.19
2019-05-01T13:52:11.456Z,99540.89
2019-05-01T13:54:43.009Z,99528.64
2019-05-01T13:57:14.612Z,99538.08
2019-05-01T13:59:46.215Z,99536.98
2019-05-01T14:02:17.779Z,99523.63
2019-05-01T14:04:49.395Z,99529.45
2019-05-01T14:07:21.126Z,99520.58
2019-05-01T14:09:52.653Z,99533.08
2019-05-01T14:12:24.341Z,99536.98
2019-05-01T14:14:55.940Z,99537.27
2019-05-01T14:17:27.541Z,99542.83
2019-05-01T14:20:06.520Z,99520.87
2019-05-01T14:22:54.637Z,99522.83
2019-05-01T14:25:26.226Z,99517.80
2019-05-01T14:27:57.917Z,99515.84
2019-05-01T14:30:29.457Z,99514.47
2019-05-01T14:33:00.975Z,99518.06
2019-05-01T14:35:32.514Z,99517.55
2019-05-01T14:38:04.027Z,99510.86
2019-05-01T14:40:37.444Z,99519.20
2019-05-01T14:43:09.022Z,99507.27
2019-05-01T14:45:40.655Z,99511.71
2019-05-01T14:48:12.617Z,99508.35
2019-05-01T14:50:44.173Z,99513.64
2019-05-01T14:53:15.656Z,99509.17
2019-05-01T14:55:47.189Z,99501.98
2019-05-01T14:58:18.754Z,99509.77
2019-05-01T15:00:50.406Z,99505.04
2019-05-01T15:03:21.956Z,99504.44
2019-05-01T15:05:53.507Z,99493.05
2019-05-01T15:08:25.051Z,99492.51
2019-05-01T15:10:58.145Z,99490.83
2019-05-01T15:13:35.413Z,99488.91
2019-05-01T15:16:16.491Z,99483.34
2019-05-01T15:19:02.749Z,99477.50
2019-05-01T15:21:35.429Z,99475.28
2019-05-01T15:24:07.162Z,99472.77
2019-05-01T15:26:38.711Z,99470.01
2019-05-01T15:29:10.299Z,99467.21
2019-05-01T15:31:41.942Z,99464.42
2019-05-01T15:34:13.441Z,99466.92
2019-05-01T15:36:45.009Z,99457.50
2019-05-01T15:39:22.077Z,99459.17
2019-05-01T15:42:10.398Z,99456.94
2019-05-01T15:44:43.540Z,99454.45
2019-05-01T15:47:15.073Z,99460.26
2019-05-01T15:49:46.609Z,99455.83
2019-05-01T15:52:18.135Z,99459.44
2019-05-01T15:54:49.625Z,99455.01
2019-05-01T15:57:24.162Z,99452.22
2019-05-01T15:59:55.688Z,99448.05
2019-05-01T16:02:27.215Z,99450.55
2019-05-01T16:04:58.775Z,99456.94
2019-05-01T16:07:35.109Z,99456.07
2019-05-01T16:10:12.651Z,99451.05
2019-05-01T16:12:52.657Z,99454.05
2019-05-01T16:15:29.264Z,99445.39
2019-05-01T16:18:02.313Z,99451.45
2019-05-01T16:20:34.069Z,99440.86
2019-05-01T16:23:05.623Z,99436.41
2019-05-01T16:25:37.269Z,99434.45
2019-05-01T16:28:08.894Z,99425.80
2019-05-01T16:30:40.424Z,99432.44
2019-05-01T16:33:11.957Z,99431.89
2019-05-01T16:35:43.605Z,99434.84
2019-05-01T16:38:23.126Z,99429.27
2019-05-01T16:41:04.068Z,99430.28
2019-05-01T16:43:37.006Z,99430.81
2019-05-01T16:46:08.518Z,99429.66
2019-05-01T16:48:41.582Z,99437.05
2019-05-01T16:51:16.087Z,99443.08
2019-05-01T16:56:44.406Z,99440.04
2019-05-01T16:59:18.817Z,99447.23
2019-05-01T17:01:55.085Z,99448.30
2019-05-01T17:04:44.715Z,99448.78
2019-05-01T17:07:17.951Z,99454.80
2019-05-01T17:10:04.365Z,99463.78
2019-05-01T17:12:49.517Z,99467.54
2019-05-01T17:15:28.310Z,99465.20
2019-05-01T17:18:01.358Z,99470.94
2019-05-01T17:20:34.051Z,99472.49
2019-05-01T17:23:05.823Z,99483.45
2019-05-01T17:25:39.072Z,99482.27
2019-05-01T17:28:10.577Z,99485.72
2019-05-01T17:30:44.708Z,99488.07
2019-05-01T17:33:20.675Z,99489.28
2019-05-01T17:35:49.654Z,99491.97
2019-05-01T17:38:21.217Z,99494.12
2019-05-01T17:40:53.587Z,99496.46
2019-05-01T17:43:26.404Z,99496.70
2019-05-01T17:45:59.446Z,99498.53
2019-05-01T17:48:33.614Z,99493.41
2019-05-01T17:51:04.299Z,99488.50
2019-05-01T17:53:35.948Z,99488.63
2019-05-01T17:56:10.205Z,99493.59
2019-05-01T17:58:40.449Z,99497.08
2019-05-01T18:01:33.221Z,99499.56
2019-05-01T18:04:07.453Z,99502.80
2019-05-01T18:06:42.031Z,99502.16
2019-05-01T18:09:16.307Z,99504.30
2019-05-01T18:11:52.402Z,99499.67
2019-05-01T18:14:20.693Z,99500.90
2019-05-01T18:16:52.057Z,99503.81
2019-05-01T18:19:26.327Z,99506.42
2019-05-01T18:22:05.300Z,99503.72
2019-05-01T18:24:53.886Z,99507.77
2019-05-01T18:27:43.881Z,99503.41
2019-05-01T18:30:20.585Z,99507.03
2019-05-01T18:32:52.600Z,99507.50
2019-05-01T18:35:23.433Z,99507.93
2019-05-01T18:37:59.279Z,99505.42
2019-05-01T18:40:50.346Z,99512.27
2019-05-01T18:43:26.929Z,99505.53
2019-05-01T18:45:57.956Z,99505.28
2019-05-01T18:48:29.270Z,99502.31
2019-05-01T18:51:03.633Z,99506.59
2019-05-01T18:53:35.062Z,99507.61
2019-05-01T18:56:07.035Z,99500.69
2019-05-01T18:58:38.581Z,99500.16
2019-05-01T19:01:31.060Z,99500.23
2019-05-01T19:04:04.751Z,99501.09
2019-05-01T19:06:41.309Z,99494.30
2019-05-01T19:09:29.722Z,99509.70
2019-05-01T19:11:54.458Z,99505.91
2019-05-01T19:14:28.688Z,99507.64
2019-05-01T19:17:00.287Z,99505.91
2019-05-01T19:19:31.565Z,99504.94
2019-05-01T19:22:02.977Z,99508.59
2019-05-01T19:24:38.191Z,99503.03
2019-05-01T19:27:08.086Z,99501.13
2019-05-01T19:29:40.622Z,99497.48
2019-05-01T19:32:14.996Z,99500.64
2019-05-01T19:34:47.339Z,99501.00
2019-05-01T19:37:22.000Z,99498.92
2019-05-01T19:39:54.970Z,99501.68
2019-05-01T19:42:26.450Z,99502.81
2019-05-01T19:44:59.167Z,99509.17
2019-05-01T19:47:31.002Z,99506.66
2019-05-01T19:50:07.573Z,99504.36
2019-05-01T19:52:37.795Z,99503.83
2019-05-01T19:55:12.347Z,99509.45
2019-05-01T19:57:43.665Z,99502.92
2019-05-01T20:00:17.721Z,99503.69
2019-05-01T20:02:49.128Z,99499.55
2019-05-01T20:05:21.952Z,99496.11
2019-05-01T20:07:56.140Z,99492.44
2019-05-01T20:10:29.273Z,99491.06
2019-05-01T20:13:00.620Z,99487.02
2019-05-01T20:15:32.429Z,99487.91
2019-05-01T20:18:03.699Z,99479.61
2019-05-01T20:20:34.959Z,99471.47
2019-05-01T20:23:06.485Z,99473.20
2019-05-01T20:25:37.715Z,99474.22
2019-05-01T20:28:08.983Z,99479.31
2019-05-01T20:30:40.321Z,99483.68
2019-05-01T20:33:11.568Z,99483.93
2019-05-01T20:35:42.793Z,99475.84
2019-05-01T20:38:14.116Z,99482.47
2019-05-01T20:40:45.450Z,99471.78
2019-05-01T20:43:17.755Z,99465.48
2019-05-01T20:45:51.136Z,99467.30
2019-05-01T20:48:23.757Z,99462.84
2019-05-01T20:50:55.280Z,99456.58
2019-05-01T20:53:26.598Z,99456.45
2019-05-01T20:55:59.494Z,99446.89
2019-05-01T20:58:30.887Z,99437.75
2019-05-01T21:01:03.188Z,99443.53
2019-05-01T21:03:36.391Z,99439.65
2019-05-01T21:06:28.103Z,99442.93
2019-05-01T21:09:13.716Z,99436.41
2019-05-01T21:12:05.066Z,99424.22
2019-05-01T21:14:30.755Z,99418.36
2019-05-01T21:17:02.022Z,99417.46
2019-05-01T21:19:35.305Z,99413.53
2019-05-01T21:22:06.378Z,99411.26
2019-05-01T21:24:37.688Z,99416.07
2019-05-01T21:27:08.931Z,99415.83
2019-05-01T21:29:44.529Z,99422.77
2019-05-01T21:32:18.227Z,99425.70
2019-05-01T21:34:50.434Z,99420.63
2019-05-01T21:37:23.370Z,99415.73
2019-05-01T21:39:54.766Z,99413.83
2019-05-01T21:42:26.039Z,99418.06
2019-05-01T21:44:57.356Z,99414.36
2019-05-01T21:47:28.605Z,99413.17
2019-05-01T21:49:59.958Z,99409.38
2019-05-01T21:52:32.936Z,99411.34
2019-05-01T21:55:05.561Z,99403.09
2019-05-01T21:57:40.120Z,99393.30
2019-05-01T22:00:10.397Z,99390.18
2019-05-01T22:02:46.387Z,99383.86
2019-05-01T22:05:16.239Z,99391.79
2019-05-01T22:07:47.520Z,99394.86
2019-05-01T22:10:21.522Z,99383.36
2019-05-01T22:12:52.023Z,99386.50
2019-05-01T22:15:27.616Z,99385.97
2019-05-01T22:18:00.628Z,99380.11
2019-05-01T22:20:50.074Z,99379.30
2019-05-01T22:23:23.236Z,99376.94
2019-05-01T22:26:00.371Z,99379.55
2019-05-01T22:28:36.494Z,99368.50
2019-05-01T22:31:25.580Z,99366.81
2019-05-01T22:33:58.626Z,99370.03
2019-05-01T22:36:31.037Z,99370.92
2019-05-01T22:39:05.995Z,99368.89
2019-05-01T22:41:39.319Z,99359.52
2019-05-01T22:44:12.852Z,99365.48
2019-05-01T22:46:43.789Z,99358.09
2019-05-01T22:49:16.133Z,99356.62
2019-05-01T22:51:47.553Z,99346.73
2019-05-01T22:54:18.894Z,99349.39
2019-05-01T22:56:50.266Z,99347.35
2019-05-01T22:59:21.533Z,99349.06
2019-05-01T23:01:54.420Z,99346.77
2019-05-01T23:04:26.131Z,99348.16
2019-05-01T23:06:57.482Z,99352.41
2019-05-01T23:09:30.374Z,99350.42
2019-05-01T23:12:01.772Z,99346.87
2019-05-01T23:14:33.140Z,99348.96
2019-05-01T23:17:06.210Z,99345.55
2019-05-01T23:19:37.540Z,99347.16
2019-05-01T23:22:08.772Z,99345.73
2019-05-01T23:24:40.028Z,99340.44
2019-05-01T23:27:11.350Z,99342.66
2019-05-01T23:29:42.726Z,99338.49
2019-05-01T23:32:14.035Z,99340.68
2019-05-01T23:34:45.330Z,99339.02
2019-05-01T23:37:16.740Z,99339.77
2019-05-01T23:39:47.975Z,99335.89
2019-05-01T23:42:19.226Z,99336.27
2019-05-01T23:44:50.488Z,99333.56
2019-05-01T23:47:21.894Z,99328.40
2019-05-01T23:49:53.856Z,99331.14
2019-05-01T23:52:26.307Z,99323.99
2019-05-01T23:54:57.615Z,99324.93
2019-05-01T23:57:28.926Z,99316.66
